Time;durP1;ratioP1;P1;durP2;ratioP2;P2;SDS_P1;SDS_P2;PMS_P1;PMS_P2;Temp;Humidity;BMP_temperature;BMP_pressure;BME280_temperature;BME280_humidity;BME280_pressure;Samples;Min_cycle;Max_cycle;Signal;HPM_P1;HPM_P2
2021/04/19 00:02:27;;;;;;;;;;;12.10;71.60;;;;;;4421378;32;20021;-73
2021/04/19 00:04:54;;;;;;;;;;;12.10;71.70;;;;;;4420688;32;40318;-74
2021/04/19 00:07:21;;;;;;;;;;;12.10;71.80;;;;;;4420813;32;38645;-74
2021/04/19 00:09:48;;;;;;;;;;;12.10;71.80;;;;;;4407181;32;44454;-74
2021/04/19 00:12:17;;;;;;;;;;;12.10;71.90;;;;;;4421046;32;44996;-74
2021/04/19 00:14:46;;;;;;;;;;;12.10;72.00;;;;;;4407394;32;45005;-73
2021/04/19 00:17:12;;;;;;;;;;;12.10;72.20;;;;;;4420495;32;43479;-73
2021/04/19 00:19:42;;;;;;;;;;;12.00;72.20;;;;;;4421669;32;20043;-73
2021/04/19 00:22:09;;;;;;;;;;;11.90;72.20;;;;;;4422099;32;20011;-73
2021/04/19 00:24:35;;;;;;;;;;;11.90;72.40;;;;;;4408692;32;20011;-73
2021/04/19 00:27:02;;;;;;;;;;;11.80;72.50;;;;;;4408733;32;20008;-74
2021/04/19 00:29:29;;;;;;;;;;;11.80;72.70;;;;;;4422204;32;20008;-74
2021/04/19 00:31:58;;;;;;;;;;;11.80;72.70;;;;;;4421850;32;20013;-74
2021/04/19 00:34:25;;;;;;;;;;;11.80;72.70;;;;;;4420535;32;36807;-74
2021/04/19 00:36:54;;;;;;;;;;;11.80;72.70;;;;;;4421278;32;20363;-74
2021/04/19 00:39:23;;;;;;;;;;;11.70;72.80;;;;;;4421232;32;20023;-74
2021/04/19 00:41:50;;;;;;;;;;;11.70;72.90;;;;;;4420185;32;45042;-74
2021/04/19 00:44:18;;;;;;;;;;;11.70;73.00;;;;;;4419373;32;45287;-74
2021/04/19 00:46:48;;;;;;;;;;;11.70;73.00;;;;;;4406979;32;45039;-73
2021/04/19 00:49:16;;;;;;;;;;;11.60;73.00;;;;;;4393990;32;43598;-74
2021/04/19 00:51:45;;;;;;;;;;;11.60;73.20;;;;;;4419018;32;41998;-74
2021/04/19 00:54:12;;;;;;;;;;;11.60;73.20;;;;;;4406599;32;44363;-73
2021/04/19 00:56:39;;;;;;;;;;;11.60;73.20;;;;;;4420034;32;43331;-73
2021/04/19 00:59:09;;;;;;;;;;;11.70;73.30;;;;;;4421194;32;20045;-73
2021/04/19 01:01:35;;;;;;;;;;;11.70;73.20;;;;;;4419802;32;44239;-73
2021/04/19 01:04:02;;;;;;;;;;;11.70;73.20;;;;;;4420881;32;43270;-73
2021/04/19 01:06:29;;;;;;;;;;;11.70;73.20;;;;;;4420140;32;43649;-73
2021/04/19 01:08:56;;;;;;;;;;;11.70;73.30;;;;;;4420369;32;39541;-73
2021/04/19 01:11:25;;;;;;;;;;;11.60;73.20;;;;;;4420451;32;44994;-73
2021/04/19 01:13:54;;;;;;;;;;;11.60;73.20;;;;;;4393677;32;43427;-73
2021/04/19 01:16:21;;;;;;;;;;;11.60;73.20;;;;;;4420370;32;44703;-73
2021/04/19 01:18:48;;;;;;;;;;;11.60;73.30;;;;;;4420395;32;44141;-73
2021/04/19 01:21:14;;;;;;;;;;;11.60;73.30;;;;;;4420294;32;43350;-73
2021/04/19 01:23:44;;;;;;;;;;;11.60;73.40;;;;;;4406768;32;43573;-73
2021/04/19 01:26:10;;;;;;;;;;;11.60;73.50;;;;;;4420332;32;44493;-73
2021/04/19 01:28:49;;;;;;;;;;;11.50;73.50;;;;;;4420353;32;44585;-73
2021/04/19 01:31:16;;;;;;;;;;;11.50;73.60;;;;;;4406371;32;44262;-73
2021/04/19 01:33:43;;;;;;;;;;;11.50;73.70;;;;;;4420081;32;42682;-73
2021/04/19 01:36:10;;;;;;;;;;;11.50;73.70;;;;;;4420088;32;42542;-73
2021/04/19 01:38:37;;;;;;;;;;;11.50;73.60;;;;;;4420201;32;43650;-73
2021/04/19 01:41:04;;;;;;;;;;;11.50;73.60;;;;;;4420141;32;44565;-73
2021/04/19 01:43:31;;;;;;;;;;;11.50;73.60;;;;;;4406378;32;44113;-73
2021/04/19 01:46:01;;;;;;;;;;;11.50;73.70;;;;;;4393383;32;43539;-73
2021/04/19 01:48:27;;;;;;;;;;;11.40;73.80;;;;;;4393346;32;43988;-73
2021/04/19 01:50:54;;;;;;;;;;;11.40;74.10;;;;;;4418837;32;45055;-73
2021/04/19 01:53:21;;;;;;;;;;;11.30;74.20;;;;;;4419696;32;43058;-73
2021/04/19 01:55:51;;;;;;;;;;;11.20;74.40;;;;;;4407275;32;20022;-73
2021/04/19 01:58:25;;;;;;;;;;;11.20;74.70;;;;;;4419275;32;30834;-73
2021/04/19 02:00:57;;;;;;;;;;;11.10;74.90;;;;;;4419821;32;44641;-73
2021/04/19 02:03:31;;;;;;;;;;;11.20;75.20;;;;;;4391603;32;20024;-73
2021/04/19 02:06:17;;;;;;;;;;;11.20;75.10;;;;;;4404674;32;20048;-74
2021/04/19 02:09:01;;;;;;;;;;;11.20;75.10;;;;;;4405460;32;20020;-73
2021/04/19 02:11:39;;;;;;;;;;;11.10;75.10;;;;;;4404942;32;20000;-73
2021/04/19 02:14:15;;;;;;;;;;;11.10;75.30;;;;;;4404404;32;20023;-73
2021/04/19 02:16:49;;;;;;;;;;;11.10;75.40;;;;;;4392292;32;20000;-73
2021/04/19 02:19:35;;;;;;;;;;;11.10;75.30;;;;;;4405989;32;20427;-73
2021/04/19 02:22:06;;;;;;;;;;;11.00;75.40;;;;;;4407568;32;20379;-73
2021/04/19 02:24:34;;;;;;;;;;;11.00;75.50;;;;;;4408595;32;20019;-73
2021/04/19 02:27:04;;;;;;;;;;;11.00;75.60;;;;;;4393994;32;35719;-73
2021/04/19 02:29:42;;;;;;;;;;;11.00;75.80;;;;;;4405919;32;45172;-73
2021/04/19 02:32:16;;;;;;;;;;;11.00;75.80;;;;;;4406223;32;44077;-73
2021/04/19 02:34:44;;;;;;;;;;;11.00;75.70;;;;;;4407292;32;43759;-73
2021/04/19 02:37:12;;;;;;;;;;;11.00;75.70;;;;;;4407088;32;43747;-73
2021/04/19 02:39:41;;;;;;;;;;;11.00;75.80;;;;;;4406133;32;43698;-74
2021/04/19 02:42:08;;;;;;;;;;;11.00;75.80;;;;;;4406899;32;36716;-74
2021/04/19 02:44:36;;;;;;;;;;;11.00;75.80;;;;;;4406201;32;43307;-74
2021/04/19 02:47:06;;;;;;;;;;;11.00;75.80;;;;;;4407161;32;38997;-74
2021/04/19 02:49:38;;;;;;;;;;;11.00;75.60;;;;;;4406183;32;45065;-74
2021/04/19 02:52:06;;;;;;;;;;;11.00;75.70;;;;;;4406122;32;39572;-74
2021/04/19 02:54:34;;;;;;;;;;;11.00;75.80;;;;;;4418281;32;42080;-74
2021/04/19 02:57:08;;;;;;;;;;;11.00;75.80;;;;;;4393850;32;31732;-74
2021/04/19 02:59:37;;;;;;;;;;;10.90;75.70;;;;;;4407482;32;33588;-74
2021/04/19 03:02:09;;;;;;;;;;;10.90;75.90;;;;;;4411895;32;20022;-74
2021/04/19 03:04:37;;;;;;;;;;;10.80;76.80;;;;;;4408371;32;42528;-74
2021/04/19 03:07:08;;;;;;;;;;;10.80;76.20;;;;;;4408810;32;36731;-74
2021/04/19 03:09:39;;;;;;;;;;;10.70;76.40;;;;;;4421494;32;44465;-74
2021/04/19 03:12:07;;;;;;;;;;;10.70;76.50;;;;;;4422003;32;44675;-74
2021/04/19 03:14:36;;;;;;;;;;;10.70;76.60;;;;;;4421902;32;44699;-74
2021/04/19 03:17:05;;;;;;;;;;;10.70;76.70;;;;;;4421877;32;44590;-74
2021/04/19 03:19:38;;;;;;;;;;;10.60;76.70;;;;;;4396408;32;20043;-74
2021/04/19 03:22:08;;;;;;;;;;;10.60;76.80;;;;;;4409047;32;20014;-74
2021/04/19 03:24:35;;;;;;;;;;;10.60;76.90;;;;;;4421523;32;43916;-74
2021/04/19 03:27:04;;;;;;;;;;;10.60;76.80;;;;;;4421958;32;38015;-74
2021/04/19 03:29:31;;;;;;;;;;;10.60;76.90;;;;;;4420371;32;45236;-74
2021/04/19 03:32:01;;;;;;;;;;;10.60;77.00;;;;;;4395663;32;20074;-74
2021/04/19 03:34:33;;;;;;;;;;;10.60;76.90;;;;;;4408606;32;20006;-74
2021/04/19 03:37:03;;;;;;;;;;;10.50;77.00;;;;;;4423054;32;20448;-74
2021/04/19 03:39:33;;;;;;;;;;;10.50;77.10;;;;;;4408832;32;20015;-74
2021/04/19 03:42:01;;;;;;;;;;;10.50;77.10;;;;;;4408659;32;20001;-74
2021/04/19 03:44:30;;;;;;;;;;;10.50;77.00;;;;;;4395958;32;20076;-74
2021/04/19 03:47:01;;;;;;;;;;;10.50;76.90;;;;;;4422473;32;20442;-74
2021/04/19 03:49:40;;;;;;;;;;;10.50;76.90;;;;;;4396002;32;20063;-73
2021/04/19 03:52:13;;;;;;;;;;;10.40;76.90;;;;;;4421586;32;44240;-74
2021/04/19 03:54:43;;;;;;;;;;;10.40;77.00;;;;;;4407892;32;41961;-74
2021/04/19 03:57:11;;;;;;;;;;;10.40;77.20;;;;;;4394494;32;44891;-74
2021/04/19 03:59:39;;;;;;;;;;;10.40;77.10;;;;;;4422535;32;20107;-74
2021/04/19 04:02:07;;;;;;;;;;;10.40;77.00;;;;;;4421721;32;20021;-74
2021/04/19 04:04:34;;;;;;;;;;;10.40;76.80;;;;;;4421114;32;20003;-74
2021/04/19 04:07:06;;;;;;;;;;;10.40;76.60;;;;;;4421626;32;20048;-74
2021/04/19 04:09:36;;;;;;;;;;;10.50;76.50;;;;;;4407444;32;44248;-74
2021/04/19 04:12:03;;;;;;;;;;;10.40;76.40;;;;;;4420834;32;43273;-74
2021/04/19 04:14:30;;;;;;;;;;;10.40;76.50;;;;;;4394247;32;44678;-74
2021/04/19 04:16:59;;;;;;;;;;;10.30;76.60;;;;;;4406962;32;43329;-74
2021/04/19 04:19:26;;;;;;;;;;;10.20;76.70;;;;;;4420339;32;20010;-74
2021/04/19 04:21:53;;;;;;;;;;;10.20;76.80;;;;;;4421664;32;20021;-74
2021/04/19 04:24:22;;;;;;;;;;;10.20;76.80;;;;;;4407621;32;44628;-74
2021/04/19 04:26:49;;;;;;;;;;;10.20;76.90;;;;;;4420575;32;20007;-74
2021/04/19 04:29:19;;;;;;;;;;;10.20;76.80;;;;;;4406622;32;44823;-74
2021/04/19 04:31:46;;;;;;;;;;;10.20;76.70;;;;;;4421953;32;19996;-74
2021/04/19 04:34:13;;;;;;;;;;;10.20;76.60;;;;;;4421605;32;19995;-74
2021/04/19 04:36:40;;;;;;;;;;;10.20;76.50;;;;;;4420685;32;44061;-74
2021/04/19 04:39:09;;;;;;;;;;;10.20;76.40;;;;;;4407010;32;31733;-74
2021/04/19 04:41:36;;;;;;;;;;;10.20;76.40;;;;;;4419798;32;43323;-74
2021/04/19 04:44:04;;;;;;;;;;;10.20;76.40;;;;;;4420177;32;44416;-74
2021/04/19 04:46:46;;;;;;;;;;;10.20;76.40;;;;;;4420674;32;20009;-74
2021/04/19 04:49:14;;;;;;;;;;;10.10;76.30;;;;;;4408035;32;20426;-74
2021/04/19 04:51:47;;;;;;;;;;;10.00;76.40;;;;;;4421529;32;20003;-73
2021/04/19 04:54:19;;;;;;;;;;;10.00;76.60;;;;;;4421840;32;20018;-74
2021/04/19 04:56:50;;;;;;;;;;;10.00;76.70;;;;;;4422014;32;20004;-74
2021/04/19 04:59:19;;;;;;;;;;;9.90;76.80;;;;;;4421682;32;20000;-74
2021/04/19 05:01:48;;;;;;;;;;;9.90;77.00;;;;;;4421128;32;20023;-74
2021/04/19 05:04:15;;;;;;;;;;;9.90;77.10;;;;;;4419979;32;43369;-74
2021/04/19 05:06:43;;;;;;;;;;;9.90;77.20;;;;;;4421287;32;20023;-74
2021/04/19 05:09:10;;;;;;;;;;;9.90;77.30;;;;;;4406169;32;40117;-74
2021/04/19 05:11:41;;;;;;;;;;;9.90;77.50;;;;;;4419347;32;28120;-74
2021/04/19 05:14:07;;;;;;;;;;;9.80;77.60;;;;;;4406311;32;38456;-74
2021/04/19 05:16:34;;;;;;;;;;;9.80;77.90;;;;;;4420600;32;44305;-74
2021/04/19 05:19:01;;;;;;;;;;;9.80;78.10;;;;;;4420204;32;43190;-74
2021/04/19 05:21:29;;;;;;;;;;;9.70;78.30;;;;;;4393958;32;42961;-74
2021/04/19 05:23:56;;;;;;;;;;;9.70;78.50;;;;;;4420365;32;43319;-74
2021/04/19 05:26:23;;;;;;;;;;;9.70;78.60;;;;;;4393929;32;43173;-74
2021/04/19 05:28:50;;;;;;;;;;;9.70;78.70;;;;;;4418653;32;44528;-74
2021/04/19 05:31:19;;;;;;;;;;;9.70;78.90;;;;;;4419794;32;43653;-74
2021/04/19 05:33:46;;;;;;;;;;;9.70;79.00;;;;;;4418654;32;45059;-74
2021/04/19 05:36:14;;;;;;;;;;;9.70;78.90;;;;;;4406115;32;44594;-74
2021/04/19 05:38:41;;;;;;;;;;;9.70;78.80;;;;;;4405997;32;42224;-74
2021/04/19 05:41:15;;;;;;;;;;;9.70;78.90;;;;;;4420064;32;43312;-74
2021/04/19 05:43:44;;;;;;;;;;;9.70;79.10;;;;;;4406546;32;44701;-73
2021/04/19 05:46:12;;;;;;;;;;;9.70;80.00;;;;;;4419803;32;43596;-74
2021/04/19 05:48:39;;;;;;;;;;;9.70;79.20;;;;;;4406371;32;44492;-74
2021/04/19 05:51:12;;;;;;;;;;;9.70;79.30;;;;;;4407482;32;19999;-73
2021/04/19 05:53:38;;;;;;;;;;;9.70;79.40;;;;;;4420836;32;43681;-73
2021/04/19 05:56:08;;;;;;;;;;;9.70;79.30;;;;;;4423018;32;43674;-73
2021/04/19 05:58:45;;;;;;;;;;;9.70;79.50;;;;;;4423810;32;20424;-74
2021/04/19 06:01:17;;;;;;;;;;;9.70;79.70;;;;;;4410553;32;20011;-73
2021/04/19 06:03:53;;;;;;;;;;;9.70;79.60;;;;;;4423970;32;20386;-73
2021/04/19 06:06:29;;;;;;;;;;;9.70;79.70;;;;;;4397451;32;20006;-73
2021/04/19 06:08:58;;;;;;;;;;;9.60;79.80;;;;;;4409831;32;20014;-73
2021/04/19 06:11:47;;;;;;;;;;;9.60;80.10;;;;;;4397748;32;20525;-74
2021/04/19 06:14:24;;;;;;;;;;;9.50;80.30;;;;;;4422961;32;24828;-73
2021/04/19 06:16:53;;;;;;;;;;;9.50;80.30;;;;;;4397565;32;19995;-73
2021/04/19 06:19:26;;;;;;;;;;;9.60;80.40;;;;;;4410308;32;20051;-73
2021/04/19 06:21:59;;;;;;;;;;;9.60;80.30;;;;;;4424016;32;20404;-73
2021/04/19 06:24:28;;;;;;;;;;;9.60;80.40;;;;;;4423726;32;20007;-73
2021/04/19 06:26:58;;;;;;;;;;;9.60;80.50;;;;;;4422340;32;44562;-74
2021/04/19 06:29:32;;;;;;;;;;;9.60;80.50;;;;;;4408365;32;44491;-73
2021/04/19 06:32:05;;;;;;;;;;;9.60;80.40;;;;;;4421465;32;43543;-73
2021/04/19 06:34:32;;;;;;;;;;;9.50;80.70;;;;;;4396995;32;20389;-73
2021/04/19 06:36:58;;;;;;;;;;;9.60;80.70;;;;;;4422498;32;20070;-73
2021/04/19 06:39:31;;;;;;;;;;;9.60;80.70;;;;;;4397427;32;20351;-73
2021/04/19 06:42:06;;;;;;;;;;;9.60;80.90;;;;;;4409553;32;20026;-73
2021/04/19 06:44:33;;;;;;;;;;;9.60;80.80;;;;;;4423104;32;28485;-73
2021/04/19 06:47:02;;;;;;;;;;;9.60;81.00;;;;;;4422962;32;22736;-73
2021/04/19 06:49:32;;;;;;;;;;;9.60;81.00;;;;;;4409772;32;20015;-73
2021/04/19 06:51:59;;;;;;;;;;;9.60;81.10;;;;;;4408495;32;43786;-73
2021/04/19 06:54:31;;;;;;;;;;;9.60;80.90;;;;;;4420798;32;43624;-73
2021/04/19 06:57:01;;;;;;;;;;;9.60;81.00;;;;;;4423697;32;20443;-73
2021/04/19 06:59:33;;;;;;;;;;;9.60;81.10;;;;;;4409599;32;20051;-73
2021/04/19 07:02:05;;;;;;;;;;;9.70;81.10;;;;;;4408994;32;20052;-73
2021/04/19 07:04:32;;;;;;;;;;;9.70;81.00;;;;;;4409037;32;20016;-73
2021/04/19 07:07:07;;;;;;;;;;;9.70;81.00;;;;;;4423245;32;19999;-73
2021/04/19 07:09:42;;;;;;;;;;;9.70;81.10;;;;;;4408439;32;43383;-73
2021/04/19 07:12:19;;;;;;;;;;;9.70;81.00;;;;;;4422000;32;20059;-73
2021/04/19 07:14:48;;;;;;;;;;;9.70;81.10;;;;;;4423203;32;20045;-73
2021/04/19 07:17:18;;;;;;;;;;;9.70;81.00;;;;;;4408179;32;43548;-73
2021/04/19 07:19:45;;;;;;;;;;;9.70;81.20;;;;;;4408387;32;44822;-73
2021/04/19 07:22:15;;;;;;;;;;;9.70;81.10;;;;;;4408431;32;44381;-73
2021/04/19 07:24:45;;;;;;;;;;;9.70;81.20;;;;;;4422927;32;19999;-73
2021/04/19 07:27:15;;;;;;;;;;;9.70;81.30;;;;;;4422532;32;20352;-73
2021/04/19 07:29:50;;;;;;;;;;;9.70;81.30;;;;;;4423142;32;20017;-73
2021/04/19 07:32:31;;;;;;;;;;;9.70;81.40;;;;;;4421940;32;35878;-73
2021/04/19 07:35:05;;;;;;;;;;;9.70;81.40;;;;;;4421479;32;20061;-73
2021/04/19 07:37:35;;;;;;;;;;;9.70;82.30;;;;;;4422811;32;20033;-73
2021/04/19 07:40:06;;;;;;;;;;;9.70;81.60;;;;;;4421293;32;36648;-73
2021/04/19 07:42:37;;;;;;;;;;;9.70;81.40;;;;;;4407580;32;34427;-74
2021/04/19 07:45:04;;;;;;;;;;;9.80;81.30;;;;;;4407947;32;44613;-73
2021/04/19 07:47:40;;;;;;;;;;;9.70;81.30;;;;;;4408195;32;38930;-74
2021/04/19 07:50:10;;;;;;;;;;;9.70;81.40;;;;;;4407339;32;39194;-73
2021/04/19 07:52:49;;;;;;;;;;;9.60;81.60;;;;;;4407979;32;20634;-73
2021/04/19 07:55:21;;;;;;;;;;;9.70;81.90;;;;;;4422560;32;20018;-73
2021/04/19 07:58:07;;;;;;;;;;;9.70;81.90;;;;;;4421335;32;44267;-73
2021/04/19 08:00:40;;;;;;;;;;;9.70;81.80;;;;;;4421135;32;40994;-73
2021/04/19 08:03:11;;;;;;;;;;;9.70;81.80;;;;;;4420636;32;43576;-74
2021/04/19 08:05:40;;;;;;;;;;;9.70;81.80;;;;;;4394477;32;44458;-73
2021/04/19 08:08:13;;;;;;;;;;;9.70;81.60;;;;;;4422295;32;20025;-73
2021/04/19 08:10:45;;;;;;;;;;;9.70;81.70;;;;;;4408949;32;20018;-73
2021/04/19 08:13:21;;;;;;;;;;;9.70;81.80;;;;;;4422483;32;20045;-73
2021/04/19 08:15:48;;;;;;;;;;;9.70;81.80;;;;;;4408382;32;20007;-73
2021/04/19 08:18:22;;;;;;;;;;;9.70;81.90;;;;;;4422051;32;20051;-73
2021/04/19 08:20:53;;;;;;;;;;;9.70;81.90;;;;;;4395534;32;20081;-73
2021/04/19 08:23:36;;;;;;;;;;;9.70;82.00;;;;;;4421289;32;20007;-73
2021/04/19 08:26:14;;;;;;;;;;;9.80;81.90;;;;;;4408283;32;20007;-73
2021/04/19 08:28:45;;;;;;;;;;;9.80;82.00;;;;;;4422149;32;20019;-73
2021/04/19 08:31:20;;;;;;;;;;;9.80;81.80;;;;;;4420989;32;19991;-73
2021/04/19 08:33:47;;;;;;;;;;;9.80;81.60;;;;;;4395987;32;20006;-73
2021/04/19 08:36:24;;;;;;;;;;;9.90;81.70;;;;;;4422209;32;20071;-73
2021/04/19 08:38:51;;;;;;;;;;;9.90;81.70;;;;;;4421983;32;20021;-73
2021/04/19 08:41:21;;;;;;;;;;;9.90;81.80;;;;;;4408093;32;20011;-73
2021/04/19 08:43:53;;;;;;;;;;;9.90;82.00;;;;;;4421994;32;20021;-73
2021/04/19 08:46:22;;;;;;;;;;;9.90;81.90;;;;;;4408044;32;20019;-73
2021/04/19 08:48:49;;;;;;;;;;;10.00;82.00;;;;;;4421959;32;20511;-73
2021/04/19 08:51:16;;;;;;;;;;;9.90;81.80;;;;;;4420745;32;20008;-73
2021/04/19 08:53:43;;;;;;;;;;;10.00;81.80;;;;;;4407982;32;19996;-73
2021/04/19 08:56:11;;;;;;;;;;;10.00;81.60;;;;;;4421374;32;20017;-73
2021/04/19 08:58:41;;;;;;;;;;;10.00;81.60;;;;;;4421893;32;20007;-73
2021/04/19 09:01:09;;;;;;;;;;;10.10;81.50;;;;;;4395196;32;20069;-73
2021/04/19 09:03:39;;;;;;;;;;;10.10;81.50;;;;;;4407987;32;20044;-73
2021/04/19 09:06:15;;;;;;;;;;;10.10;81.50;;;;;;4395277;32;20006;-73
2021/04/19 09:08:43;;;;;;;;;;;10.10;81.60;;;;;;4407863;32;20003;-73
2021/04/19 09:11:12;;;;;;;;;;;10.10;81.50;;;;;;4420119;32;20066;-73
2021/04/19 09:13:43;;;;;;;;;;;10.10;81.50;;;;;;4407589;32;20386;-73
2021/04/19 09:16:16;;;;;;;;;;;10.10;81.40;;;;;;4421433;32;20015;-73
2021/04/19 09:19:08;;;;;;;;;;;10.20;81.50;;;;;;4407759;32;19988;-73
2021/04/19 09:21:43;;;;;;;;;;;10.20;81.40;;;;;;4421637;32;20055;-73
2021/04/19 09:24:17;;;;;;;;;;;10.20;81.60;;;;;;4421690;32;20071;-74
2021/04/19 09:26:54;;;;;;;;;;;10.10;81.50;;;;;;4408019;32;20388;-74
2021/04/19 09:29:27;;;;;;;;;;;10.10;81.50;;;;;;4410918;32;20033;-74
2021/04/19 09:31:59;;;;;;;;;;;10.10;82.50;;;;;;4424238;32;20010;-74
2021/04/19 09:34:58;;;;;;;;;;;10.10;81.80;;;;;;4411017;32;20059;-74
2021/04/19 09:37:34;;;;;;;;;;;10.00;82.00;;;;;;4399269;32;20412;-74
2021/04/19 09:40:10;;;;;;;;;;;10.00;82.20;;;;;;4424873;32;20012;-74
2021/04/19 09:42:56;;;;;;;;;;;10.00;82.40;;;;;;4424470;32;20071;-74
2021/04/19 09:45:41;;;;;;;;;;;10.10;82.40;;;;;;4424146;32;20015;-74
2021/04/19 09:48:27;;;;;;;;;;;10.10;82.20;;;;;;4423742;32;22960;-74
2021/04/19 09:51:00;;;;;;;;;;;10.10;82.40;;;;;;4410545;32;20472;-74
2021/04/19 09:53:27;;;;;;;;;;;10.10;82.30;;;;;;4424582;32;20071;-74
2021/04/19 09:56:00;;;;;;;;;;;10.10;82.20;;;;;;4410205;32;20025;-74
2021/04/19 09:58:26;;;;;;;;;;;10.20;82.20;;;;;;4410779;32;20048;-74
2021/04/19 10:00:59;;;;;;;;;;;10.20;82.20;;;;;;4423827;32;20008;-74
2021/04/19 10:03:34;;;;;;;;;;;10.20;82.10;;;;;;4424012;32;20007;-74
2021/04/19 10:06:09;;;;;;;;;;;10.30;82.00;;;;;;4423817;32;20102;-74
2021/04/19 10:08:42;;;;;;;;;;;10.30;81.90;;;;;;4410781;32;20008;-74
2021/04/19 10:11:15;;;;;;;;;;;10.30;82.00;;;;;;4423895;32;20074;-74
2021/04/19 10:13:50;;;;;;;;;;;10.30;81.80;;;;;;4423983;32;20039;-74
2021/04/19 10:16:17;;;;;;;;;;;10.30;81.70;;;;;;4422939;32;20407;-74
2021/04/19 10:18:55;;;;;;;;;;;10.30;81.50;;;;;;4409736;32;20008;-74
2021/04/19 10:21:34;;;;;;;;;;;10.30;81.40;;;;;;4423795;32;20025;-74
2021/04/19 10:24:12;;;;;;;;;;;10.30;81.50;;;;;;4410669;32;20059;-74
2021/04/19 10:26:42;;;;;;;;;;;10.40;81.50;;;;;;4410252;32;20070;-74
2021/04/19 10:29:19;;;;;;;;;;;10.40;81.40;;;;;;4409782;32;20055;-74
2021/04/19 10:31:54;;;;;;;;;;;10.40;81.50;;;;;;4424061;32;20017;-73
2021/04/19 10:34:31;;;;;;;;;;;10.40;81.40;;;;;;4410291;32;19992;-74
2021/04/19 10:37:04;;;;;;;;;;;10.50;81.50;;;;;;4410174;32;20040;-73
2021/04/19 10:39:36;;;;;;;;;;;10.50;81.50;;;;;;4423273;32;20018;-74
2021/04/19 10:42:08;;;;;;;;;;;10.50;81.40;;;;;;4423350;32;20011;-74
2021/04/19 10:44:44;;;;;;;;;;;10.50;81.40;;;;;;4422529;32;20000;-74
2021/04/19 10:47:24;;;;;;;;;;;10.50;81.20;;;;;;4410298;32;20004;-74
2021/04/19 10:49:59;;;;;;;;;;;10.50;81.30;;;;;;4423807;32;20012;-73
2021/04/19 10:52:31;;;;;;;;;;;10.60;81.30;;;;;;4409897;32;20012;-73
2021/04/19 10:55:03;;;;;;;;;;;10.60;81.20;;;;;;4397150;32;20397;-73
2021/04/19 10:57:35;;;;;;;;;;;10.60;81.30;;;;;;4423744;32;20021;-73
2021/04/19 11:00:04;;;;;;;;;;;10.60;81.30;;;;;;4423429;32;20015;-73
2021/04/19 11:02:33;;;;;;;;;;;10.60;81.40;;;;;;4409291;32;20012;-74
2021/04/19 11:05:09;;;;;;;;;;;10.60;81.50;;;;;;4409713;32;20019;-73
2021/04/19 11:07:44;;;;;;;;;;;10.60;81.50;;;;;;4423199;32;20014;-74
2021/04/19 11:10:20;;;;;;;;;;;10.60;81.30;;;;;;4409828;32;20013;-73
2021/04/19 11:13:02;;;;;;;;;;;10.60;81.40;;;;;;4409458;32;20457;-73
2021/04/19 11:15:38;;;;;;;;;;;10.70;81.40;;;;;;4395966;32;19995;-74
2021/04/19 11:18:34;;;;;;;;;;;10.70;81.50;;;;;;4423281;32;20042;-74
2021/04/19 11:21:08;;;;;;;;;;;10.70;81.40;;;;;;4396636;32;20007;-74
2021/04/19 11:23:36;;;;;;;;;;;10.70;81.40;;;;;;4409421;32;20083;-74
2021/04/19 11:26:09;;;;;;;;;;;10.70;81.30;;;;;;4408604;32;20010;-73
2021/04/19 11:28:46;;;;;;;;;;;10.70;81.20;;;;;;4422862;32;20007;-74
2021/04/19 11:31:16;;;;;;;;;;;10.80;81.30;;;;;;4408942;32;20401;-74
2021/04/19 11:33:43;;;;;;;;;;;10.80;81.30;;;;;;4409005;32;20043;-74
2021/04/19 11:36:19;;;;;;;;;;;10.80;81.20;;;;;;4423072;32;20004;-74
2021/04/19 11:38:46;;;;;;;;;;;10.80;81.20;;;;;;4421529;32;20363;-74
2021/04/19 11:41:13;;;;;;;;;;;10.80;81.20;;;;;;4422760;32;20047;-74
2021/04/19 11:43:50;;;;;;;;;;;10.80;81.20;;;;;;4421668;32;43689;-74
2021/04/19 11:46:25;;;;;;;;;;;10.90;81.30;;;;;;4421895;32;28396;-74
2021/04/19 11:48:52;;;;;;;;;;;10.90;81.30;;;;;;4421960;32;31379;-74
2021/04/19 11:51:19;;;;;;;;;;;10.90;82.10;;;;;;4421597;32;38479;-74
2021/04/19 11:53:47;;;;;;;;;;;10.90;81.20;;;;;;4407239;32;43311;-73
2021/04/19 11:56:17;;;;;;;;;;;10.90;81.20;;;;;;4421724;32;28113;-74
2021/04/19 11:58:50;;;;;;;;;;;11.00;82.10;;;;;;4422462;32;20383;-74
2021/04/19 12:01:19;;;;;;;;;;;10.90;81.20;;;;;;4422640;32;20054;-74
2021/04/19 12:03:47;;;;;;;;;;;11.00;81.30;;;;;;4422291;32;20428;-74
2021/04/19 12:06:16;;;;;;;;;;;11.00;81.30;;;;;;4422417;32;20011;-74
2021/04/19 12:08:46;;;;;;;;;;;11.00;81.30;;;;;;4408540;32;20003;-74
2021/04/19 12:11:18;;;;;;;;;;;11.00;81.30;;;;;;4421341;32;20050;-74
2021/04/19 12:13:48;;;;;;;;;;;11.00;81.30;;;;;;4408526;32;20018;-74
2021/04/19 12:16:21;;;;;;;;;;;11.00;81.30;;;;;;4395953;32;19992;-73
2021/04/19 12:18:50;;;;;;;;;;;11.00;81.40;;;;;;4422346;32;19999;-73
2021/04/19 12:21:19;;;;;;;;;;;11.10;81.40;;;;;;4396352;32;20011;-74
2021/04/19 12:23:52;;;;;;;;;;;11.10;81.50;;;;;;4408948;32;20012;-73
2021/04/19 12:26:19;;;;;;;;;;;11.10;81.30;;;;;;4420632;32;20025;-74
2021/04/19 12:29:04;;;;;;;;;;;11.10;81.40;;;;;;4421975;32;20008;-73
2021/04/19 12:31:31;;;;;;;;;;;11.10;81.30;;;;;;4408358;32;20076;-74
2021/04/19 12:33:58;;;;;;;;;;;11.10;81.20;;;;;;4421426;32;20041;-74
2021/04/19 12:36:27;;;;;;;;;;;11.20;81.40;;;;;;4408225;32;20006;-74
2021/04/19 12:38:56;;;;;;;;;;;11.20;81.40;;;;;;4421914;32;20008;-74
2021/04/19 12:41:28;;;;;;;;;;;11.20;81.60;;;;;;4421915;32;20348;-74
2021/04/19 12:43:57;;;;;;;;;;;11.20;81.40;;;;;;4408341;32;20025;-73
2021/04/19 12:46:26;;;;;;;;;;;11.20;81.40;;;;;;4421119;32;20026;-74
2021/04/19 12:48:56;;;;;;;;;;;11.30;81.40;;;;;;4407905;32;19999;-73
2021/04/19 12:51:24;;;;;;;;;;;11.30;81.30;;;;;;4421190;32;20018;-73
2021/04/19 12:53:51;;;;;;;;;;;11.30;81.30;;;;;;4421854;32;20065;-73
2021/04/19 12:56:23;;;;;;;;;;;11.30;81.30;;;;;;4421731;32;20058;-73
2021/04/19 12:58:50;;;;;;;;;;;11.30;81.30;;;;;;4420505;32;20117;-74
2021/04/19 13:01:24;;;;;;;;;;;11.40;81.30;;;;;;4408256;32;19992;-73
2021/04/19 13:03:53;;;;;;;;;;;11.40;81.40;;;;;;4421113;32;20054;-73
2021/04/19 13:06:19;;;;;;;;;;;11.40;81.30;;;;;;4407450;32;20408;-74
2021/04/19 13:08:46;;;;;;;;;;;11.40;81.30;;;;;;4421477;32;20025;-73
2021/04/19 13:11:14;;;;;;;;;;;11.40;81.30;;;;;;4408093;32;20359;-73
2021/04/19 13:13:41;;;;;;;;;;;11.40;81.30;;;;;;4421440;32;20007;-74
2021/04/19 13:16:15;;;;;;;;;;;11.50;81.50;;;;;;4396046;32;20413;-73
2021/04/19 13:18:47;;;;;;;;;;;11.40;81.40;;;;;;4421393;32;20007;-73
2021/04/19 13:21:23;;;;;;;;;;;11.40;81.40;;;;;;4421695;32;20059;-73
2021/04/19 13:23:56;;;;;;;;;;;11.50;81.50;;;;;;4393556;32;45088;-73
2021/04/19 13:26:22;;;;;;;;;;;11.50;81.40;;;;;;4407097;32;37359;-73
2021/04/19 13:28:49;;;;;;;;;;;11.50;81.30;;;;;;4418941;32;40046;-73
2021/04/19 13:31:16;;;;;;;;;;;11.50;81.40;;;;;;4406666;32;44268;-74
2021/04/19 13:33:42;;;;;;;;;;;11.50;81.30;;;;;;4419112;32;43247;-73
2021/04/19 13:36:09;;;;;;;;;;;11.50;81.40;;;;;;4420437;32;38498;-73
2021/04/19 13:38:36;;;;;;;;;;;11.50;81.50;;;;;;4419933;32;44261;-73
2021/04/19 13:41:04;;;;;;;;;;;11.60;81.50;;;;;;4420291;32;43618;-73
2021/04/19 13:43:31;;;;;;;;;;;11.60;81.50;;;;;;4420059;32;43670;-74
2021/04/19 13:46:03;;;;;;;;;;;11.60;81.60;;;;;;4419734;32;44683;-73
2021/04/19 13:48:32;;;;;;;;;;;11.60;81.60;;;;;;4420273;32;43361;-73
2021/04/19 13:50:59;;;;;;;;;;;11.60;81.40;;;;;;4405995;32;43670;-74
2021/04/19 13:53:32;;;;;;;;;;;11.60;81.60;;;;;;4405922;32;42260;-73
2021/04/19 13:55:59;;;;;;;;;;;11.60;81.60;;;;;;4406828;32;44326;-74
2021/04/19 13:58:31;;;;;;;;;;;11.60;81.60;;;;;;4421002;32;20012;-73
2021/04/19 14:01:03;;;;;;;;;;;11.60;81.60;;;;;;4406163;32;37539;-74
2021/04/19 14:03:30;;;;;;;;;;;11.60;81.60;;;;;;4419836;32;43905;-74
2021/04/19 14:06:02;;;;;;;;;;;11.60;82.30;;;;;;4420551;32;20015;-73
2021/04/19 14:08:31;;;;;;;;;;;11.70;81.60;;;;;;4419670;32;42544;-74
2021/04/19 14:11:03;;;;;;;;;;;11.70;81.50;;;;;;4421290;32;20008;-74
2021/04/19 14:13:35;;;;;;;;;;;11.70;81.40;;;;;;4393306;32;43754;-74
2021/04/19 14:16:08;;;;;;;;;;;11.70;81.40;;;;;;4408626;32;43824;-73
2021/04/19 14:18:37;;;;;;;;;;;11.70;81.50;;;;;;4422829;32;20008;-74
2021/04/19 14:21:05;;;;;;;;;;;11.70;81.50;;;;;;4422793;32;30914;-74
2021/04/19 14:23:35;;;;;;;;;;;11.70;81.50;;;;;;4409986;32;20360;-74
2021/04/19 14:26:08;;;;;;;;;;;11.70;81.50;;;;;;4423977;32;20391;-74
2021/04/19 14:28:35;;;;;;;;;;;11.80;81.60;;;;;;4424375;32;20007;-74
2021/04/19 14:31:08;;;;;;;;;;;11.80;81.50;;;;;;4409084;32;32009;-74
2021/04/19 14:33:34;;;;;;;;;;;11.80;81.50;;;;;;4422135;32;42524;-74
2021/04/19 14:36:01;;;;;;;;;;;11.80;81.50;;;;;;4408851;32;43625;-74
2021/04/19 14:38:28;;;;;;;;;;;11.80;81.40;;;;;;4422612;32;36588;-74
2021/04/19 14:40:55;;;;;;;;;;;11.80;81.50;;;;;;4409138;32;37130;-74
2021/04/19 14:43:25;;;;;;;;;;;11.80;81.40;;;;;;4409498;32;20060;-74